Aviation Digital Data Service (ADDS)

Output produced by METARs form (2139 UTC 16 February 2019)
found at http://www.aviationweather.gov/metar/data/
 
METAR text: YMAV 162100Z AUTO 00000KT 9999 // NCD 15/15 Q1012 RF00.0/000.0
Conditions at: YMAV (AVALON AIRPORT , AU) observed 2100 UTC 16 February 2019
Temperature: 15.0°C (59°F)
Dewpoint: 15.0°C (59°F) [RH = 100%]
Pressure (altimeter): 29.88 inches Hg (1012.0 mb)
Winds: calm
Visibility: 6 or more miles (10+ km)
Ceiling: at least 12,000 feet AGL
Clouds: sky clear below 12,000 feet AGL
Weather: no significant weather observed at this time

METAR text: YMAV 162030Z AUTO 00000KT 9999 // NCD 14/14 Q1012 RF00.0/000.0
Conditions at: YMAV (AVALON AIRPORT , AU) observed 2030 UTC 16 February 2019
Temperature: 14.0°C (57°F)
Dewpoint: 14.0°C (57°F) [RH = 100%]
Pressure (altimeter): 29.88 inches Hg (1012.0 mb)
Winds: calm
Visibility: 6 or more miles (10+ km)
Ceiling: at least 12,000 feet AGL
Clouds: sky clear below 12,000 feet AGL
Weather: no significant weather observed at this time

METAR text: YMAV 162000Z AUTO 36003KT 9999 // NCD 14/14 Q1012
Conditions at: YMAV (AVALON AIRPORT , AU) observed 2000 UTC 16 February 2019
Temperature: 14.0°C (57°F)
Dewpoint: 14.0°C (57°F) [RH = 100%]
Pressure (altimeter): 29.88 inches Hg (1012.0 mb)
Winds: from the N (360 degrees) at 3 MPH (3 knots; 1.5 m/s)
Visibility: 6 or more miles (10+ km)
Ceiling: at least 12,000 feet AGL
Clouds: sky clear below 12,000 feet AGL
Weather: no significant weather observed at this time

METAR text: YMAV 161930Z AUTO 00000KT 9999 // NCD 13/13 Q1012 RF00.0/000.0
Conditions at: YMAV (AVALON AIRPORT , AU) observed 1930 UTC 16 February 2019
Temperature: 13.0°C (55°F)
Dewpoint: 13.0°C (55°F) [RH = 100%]
Pressure (altimeter): 29.88 inches Hg (1012.0 mb)
Winds: calm
Visibility: 6 or more miles (10+ km)
Ceiling: at least 12,000 feet AGL
Clouds: sky clear below 12,000 feet AGL
Weather: no significant weather observed at this time

METAR text: YMAV 161900Z AUTO 00000KT 9999 // NCD 13/12 Q1012
Conditions at: YMAV (AVALON AIRPORT , AU) observed 1900 UTC 16 February 2019
Temperature: 13.0°C (55°F)
Dewpoint: 12.0°C (54°F) [RH = 94%]
Pressure (altimeter): 29.88 inches Hg (1012.0 mb)
Winds: calm
Visibility: 6 or more miles (10+ km)
Ceiling: at least 12,000 feet AGL
Clouds: sky clear below 12,000 feet AGL
Weather: no significant weather observed at this time

METAR text: YMAV 161830Z AUTO 00000KT 9999 // NCD 14/13 Q1012 RF00.0/000.0
Conditions at: YMAV (AVALON AIRPORT , AU) observed 1830 UTC 16 February 2019
Temperature: 14.0°C (57°F)
Dewpoint: 13.0°C (55°F) [RH = 94%]
Pressure (altimeter): 29.88 inches Hg (1012.0 mb)
Winds: calm
Visibility: 6 or more miles (10+ km)
Ceiling: at least 12,000 feet AGL
Clouds: sky clear below 12,000 feet AGL
Weather: no significant weather observed at this time

METAR text: YMAV 161800Z AUTO 00000KT 9999 // NCD 14/12 Q1012 RF00.0/000.0
Conditions at: YMAV (AVALON AIRPORT , AU) observed 1800 UTC 16 February 2019
Temperature: 14.0°C (57°F)
Dewpoint: 12.0°C (54°F) [RH = 88%]
Pressure (altimeter): 29.88 inches Hg (1012.0 mb)
Winds: calm
Visibility: 6 or more miles (10+ km)
Ceiling: at least 12,000 feet AGL
Clouds: sky clear below 12,000 feet AGL
Weather: no significant weather observed at this time

METAR text: YMAV 161730Z AUTO 36004KT 9999 // NCD 14/12 Q1012 RF00.0/000.0
Conditions at: YMAV (AVALON AIRPORT , AU) observed 1730 UTC 16 February 2019
Temperature: 14.0°C (57°F)
Dewpoint: 12.0°C (54°F) [RH = 88%]
Pressure (altimeter): 29.88 inches Hg (1012.0 mb)
Winds: from the N (360 degrees) at 5 MPH (4 knots; 2.1 m/s)
Visibility: 6 or more miles (10+ km)
Ceiling: at least 12,000 feet AGL
Clouds: sky clear below 12,000 feet AGL
Weather: no significant weather observed at this time

METAR text: YMAV 161700Z AUTO 35004KT 9999 // BKN018 15/13 Q1012 RF00.0/000.0
Conditions at: YMAV (AVALON AIRPORT , AU) observed 1700 UTC 16 February 2019
Temperature: 15.0°C (59°F)
Dewpoint: 13.0°C (55°F) [RH = 88%]
Pressure (altimeter): 29.88 inches Hg (1012.0 mb)
Winds: from the N (350 degrees) at 5 MPH (4 knots; 2.1 m/s)
Visibility: 6 or more miles (10+ km)
Ceiling: 1800 feet AGL
Clouds: broken clouds at 1800 feet AGL
Weather: no significant weather observed at this time

METAR text: YMAV 161630Z AUTO 34004KT 9999 // OVC018 16/14 Q1013 RF00.0/000.0
Conditions at: YMAV (AVALON AIRPORT , AU) observed 1630 UTC 16 February 2019
Temperature: 16.0°C (61°F)
Dewpoint: 14.0°C (57°F) [RH = 88%]
Pressure (altimeter): 29.91 inches Hg (1013.0 mb)
Winds: from the NNW (340 degrees) at 5 MPH (4 knots; 2.1 m/s)
Visibility: 6 or more miles (10+ km)
Ceiling: 1800 feet AGL
Clouds: overcast cloud deck at 1800 feet AGL
Weather: no significant weather observed at this time

METAR text: YMAV 161600Z AUTO 00000KT 9999 // OVC018 16/14 Q1013 RF00.0/000.0
Conditions at: YMAV (AVALON AIRPORT , AU) observed 1600 UTC 16 February 2019
Temperature: 16.0°C (61°F)
Dewpoint: 14.0°C (57°F) [RH = 88%]
Pressure (altimeter): 29.91 inches Hg (1013.0 mb)
Winds: calm
Visibility: 6 or more miles (10+ km)
Ceiling: 1800 feet AGL
Clouds: overcast cloud deck at 1800 feet AGL
Weather: no significant weather observed at this time

METAR text: YMAV 161530Z AUTO 00000KT 9999 // BKN018 16/13 Q1014 RF00.0/000.0
Conditions at: YMAV (AVALON AIRPORT , AU) observed 1530 UTC 16 February 2019
Temperature: 16.0°C (61°F)
Dewpoint: 13.0°C (55°F) [RH = 82%]
Pressure (altimeter): 29.94 inches Hg (1014.0 mb)
Winds: calm
Visibility: 6 or more miles (10+ km)
Ceiling: 1800 feet AGL
Clouds: broken clouds at 1800 feet AGL
Weather: no significant weather observed at this time

METAR text: YMAV 161500Z AUTO 34003KT 9999 // OVC018 16/14 Q1014 RF00.0/000.0
Conditions at: YMAV (AVALON AIRPORT , AU) observed 1500 UTC 16 February 2019
Temperature: 16.0°C (61°F)
Dewpoint: 14.0°C (57°F) [RH = 88%]
Pressure (altimeter): 29.94 inches Hg (1014.0 mb)
Winds: from the NNW (340 degrees) at 3 MPH (3 knots; 1.5 m/s)
Visibility: 6 or more miles (10+ km)
Ceiling: 1800 feet AGL
Clouds: overcast cloud deck at 1800 feet AGL
Weather: no significant weather observed at this time

METAR text: YMAV 161430Z AUTO 30003KT 9999 // OVC018 16/14 Q1015 RF00.0/000.0
Conditions at: YMAV (AVALON AIRPORT , AU) observed 1430 UTC 16 February 2019
Temperature: 16.0°C (61°F)
Dewpoint: 14.0°C (57°F) [RH = 88%]
Pressure (altimeter): 29.97 inches Hg (1015.0 mb)
Winds: from the WNW (300 degrees) at 3 MPH (3 knots; 1.5 m/s)
Visibility: 6 or more miles (10+ km)
Ceiling: 1800 feet AGL
Clouds: overcast cloud deck at 1800 feet AGL
Weather: no significant weather observed at this time

METAR text: YMAV 161400Z AUTO 00000KT 9999 // OVC018 16/14 Q1015 RF00.0/000.0
Conditions at: YMAV (AVALON AIRPORT , AU) observed 1400 UTC 16 February 2019
Temperature: 16.0°C (61°F)
Dewpoint: 14.0°C (57°F) [RH = 88%]
Pressure (altimeter): 29.97 inches Hg (1015.0 mb)
Winds: calm
Visibility: 6 or more miles (10+ km)
Ceiling: 1800 feet AGL
Clouds: overcast cloud deck at 1800 feet AGL
Weather: no significant weather observed at this time

METAR text: YMAV 161330Z AUTO 00000KT 9999 // NCD 15/12 Q1015 RF00.0/000.0
Conditions at: YMAV (AVALON AIRPORT , AU) observed 1330 UTC 16 February 2019
Temperature: 15.0°C (59°F)
Dewpoint: 12.0°C (54°F) [RH = 82%]
Pressure (altimeter): 29.97 inches Hg (1015.0 mb)
Winds: calm
Visibility: 6 or more miles (10+ km)
Ceiling: at least 12,000 feet AGL
Clouds: sky clear below 12,000 feet AGL
Weather: no significant weather observed at this time

METAR text: YMAV 161300Z AUTO 00000KT 9999 // NCD 16/14 Q1016 RF00.0/000.0
Conditions at: YMAV (AVALON AIRPORT , AU) observed 1300 UTC 16 February 2019
Temperature: 16.0°C (61°F)
Dewpoint: 14.0°C (57°F) [RH = 88%]
Pressure (altimeter): 30.00 inches Hg (1016.0 mb)
Winds: calm
Visibility: 6 or more miles (10+ km)
Ceiling: at least 12,000 feet AGL
Clouds: sky clear below 12,000 feet AGL
Weather: no significant weather observed at this time

METAR text: YMAV 161230Z AUTO 13005KT 9999 // SCT018 16/14 Q1016 RF00.0/000.0
Conditions at: YMAV (AVALON AIRPORT , AU) observed 1230 UTC 16 February 2019
Temperature: 16.0°C (61°F)
Dewpoint: 14.0°C (57°F) [RH = 88%]
Pressure (altimeter): 30.00 inches Hg (1016.0 mb)
Winds: from the SE (130 degrees) at 6 MPH (5 knots; 2.6 m/s)
Visibility: 6 or more miles (10+ km)
Ceiling: at least 12,000 feet AGL
Clouds: scattered clouds at 1800 feet AGL
Weather: no significant weather observed at this time

METAR text: YMAV 161200Z AUTO 15004KT 9999 // SCT018 16/14 Q1017 RF00.0/000.0
Conditions at: YMAV (AVALON AIRPORT , AU) observed 1200 UTC 16 February 2019
Temperature: 16.0°C (61°F)
Dewpoint: 14.0°C (57°F) [RH = 88%]
Pressure (altimeter): 30.03 inches Hg (1017.0 mb)
Winds: from the SSE (150 degrees) at 5 MPH (4 knots; 2.1 m/s)
Visibility: 6 or more miles (10+ km)
Ceiling: at least 12,000 feet AGL
Clouds: scattered clouds at 1800 feet AGL
Weather: no significant weather observed at this time

METAR text: YMAV 161130Z AUTO 15004KT 9999 // SCT018 17/14 Q1016 RF00.0/000.0
Conditions at: YMAV (AVALON AIRPORT , AU) observed 1130 UTC 16 February 2019
Temperature: 17.0°C (63°F)
Dewpoint: 14.0°C (57°F) [RH = 82%]
Pressure (altimeter): 30.00 inches Hg (1016.0 mb)
Winds: from the SSE (150 degrees) at 5 MPH (4 knots; 2.1 m/s)
Visibility: 6 or more miles (10+ km)
Ceiling: at least 12,000 feet AGL
Clouds: scattered clouds at 1800 feet AGL
Weather: no significant weather observed at this time

METAR text: YMAV 161100Z AUTO 17007KT 9999 // SCT020 17/14 Q1017 RF00.0/000.0
Conditions at: YMAV (AVALON AIRPORT , AU) observed 1100 UTC 16 February 2019
Temperature: 17.0°C (63°F)
Dewpoint: 14.0°C (57°F) [RH = 82%]
Pressure (altimeter): 30.03 inches Hg (1017.0 mb)
Winds: from the S (170 degrees) at 8 MPH (7 knots; 3.6 m/s)
Visibility: 6 or more miles (10+ km)
Ceiling: at least 12,000 feet AGL
Clouds: scattered clouds at 2000 feet AGL
Weather: no significant weather observed at this time

METAR text: YMAV 161030Z AUTO 18007KT 9999 // OVC020 18/14 Q1017 RF00.0/000.0
Conditions at: YMAV (AVALON AIRPORT , AU) observed 1030 UTC 16 February 2019
Temperature: 18.0°C (64°F)
Dewpoint: 14.0°C (57°F) [RH = 77%]
Pressure (altimeter): 30.03 inches Hg (1017.0 mb)
Winds: from the S (180 degrees) at 8 MPH (7 knots; 3.6 m/s)
Visibility: 6 or more miles (10+ km)
Ceiling: 2000 feet AGL
Clouds: overcast cloud deck at 2000 feet AGL
Weather: no significant weather observed at this time

METAR text: YMAV 161000Z AUTO 17005KT 9999 // BKN020 18/14 Q1017 RF00.0/000.0
Conditions at: YMAV (AVALON AIRPORT , AU) observed 1000 UTC 16 February 2019
Temperature: 18.0°C (64°F)
Dewpoint: 14.0°C (57°F) [RH = 77%]
Pressure (altimeter): 30.03 inches Hg (1017.0 mb)
Winds: from the S (170 degrees) at 6 MPH (5 knots; 2.6 m/s)
Visibility: 6 or more miles (10+ km)
Ceiling: 2000 feet AGL
Clouds: broken clouds at 2000 feet AGL
Weather: no significant weather observed at this time

METAR text: YMAV 160930Z AUTO 14007KT 9999 // NCD 18/14 Q1016 RF00.0/000.0
Conditions at: YMAV (AVALON AIRPORT , AU) observed 0930 UTC 16 February 2019
Temperature: 18.0°C (64°F)
Dewpoint: 14.0°C (57°F) [RH = 77%]
Pressure (altimeter): 30.00 inches Hg (1016.0 mb)
Winds: from the SE (140 degrees) at 8 MPH (7 knots; 3.6 m/s)
Visibility: 6 or more miles (10+ km)
Ceiling: at least 12,000 feet AGL
Clouds: sky clear below 12,000 feet AGL
Weather: no significant weather observed at this time

METAR text: YMAV 160900Z AUTO 18010KT 9999 // SCT020 19/14 Q1016 RF00.0/000.0
Conditions at: YMAV (AVALON AIRPORT , AU) observed 0900 UTC 16 February 2019
Temperature: 19.0°C (66°F)
Dewpoint: 14.0°C (57°F) [RH = 73%]
Pressure (altimeter): 30.00 inches Hg (1016.0 mb)
Winds: from the S (180 degrees) at 12 MPH (10 knots; 5.1 m/s)
Visibility: 6 or more miles (10+ km)
Ceiling: at least 12,000 feet AGL
Clouds: scattered clouds at 2000 feet AGL
Weather: no significant weather observed at this time

METAR text: YMAV 160830Z AUTO 18013KT 9999 // NCD 19/14 Q1016 RF00.0/000.0
Conditions at: YMAV (AVALON AIRPORT , AU) observed 0830 UTC 16 February 2019
Temperature: 19.0°C (66°F)
Dewpoint: 14.0°C (57°F) [RH = 73%]
Pressure (altimeter): 30.00 inches Hg (1016.0 mb)
Winds: from the S (180 degrees) at 15 MPH (13 knots; 6.7 m/s)
Visibility: 6 or more miles (10+ km)
Ceiling: at least 12,000 feet AGL
Clouds: sky clear below 12,000 feet AGL
Weather: no significant weather observed at this time

METAR text: YMAV 160800Z AUTO 18014KT 9999 // NCD 20/14 Q1016 RF00.0/000.0
Conditions at: YMAV (AVALON AIRPORT , AU) observed 0800 UTC 16 February 2019
Temperature: 20.0°C (68°F)
Dewpoint: 14.0°C (57°F) [RH = 68%]
Pressure (altimeter): 30.00 inches Hg (1016.0 mb)
Winds: from the S (180 degrees) at 16 MPH (14 knots; 7.2 m/s)
Visibility: 6 or more miles (10+ km)
Ceiling: at least 12,000 feet AGL
Clouds: sky clear below 12,000 feet AGL
Weather: no significant weather observed at this time

METAR text: YMAV 160730Z AUTO 18015KT 9999 // NCD 20/14 Q1016 RF00.0/000.0
Conditions at: YMAV (AVALON AIRPORT , AU) observed 0730 UTC 16 February 2019
Temperature: 20.0°C (68°F)
Dewpoint: 14.0°C (57°F) [RH = 68%]
Pressure (altimeter): 30.00 inches Hg (1016.0 mb)
Winds: from the S (180 degrees) at 17 MPH (15 knots; 7.7 m/s)
Visibility: 6 or more miles (10+ km)
Ceiling: at least 12,000 feet AGL
Clouds: sky clear below 12,000 feet AGL
Weather: no significant weather observed at this time

METAR text: YMAV 160700Z AUTO 18015KT 9999 // ////// 21/15 Q1015 RF00.0/000.0
Conditions at: YMAV (AVALON AIRPORT , AU) observed 0700 UTC 16 February 2019
Temperature: 21.0°C (70°F)
Dewpoint: 15.0°C (59°F) [RH = 69%]
Pressure (altimeter): 29.97 inches Hg (1015.0 mb)
Winds: from the S (180 degrees) at 17 MPH (15 knots; 7.7 m/s)
Visibility: 6 or more miles (10+ km)
Ceiling: unknown
Clouds: missing
Weather: no significant weather observed at this time

METAR text: YMAV 160630Z AUTO 18016KT 9999 // NCD 21/15 Q1015 RF00.0/000.0
Conditions at: YMAV (AVALON AIRPORT , AU) observed 0630 UTC 16 February 2019
Temperature: 21.0°C (70°F)
Dewpoint: 15.0°C (59°F) [RH = 69%]
Pressure (altimeter): 29.97 inches Hg (1015.0 mb)
Winds: from the S (180 degrees) at 18 MPH (16 knots; 8.2 m/s)
Visibility: 6 or more miles (10+ km)
Ceiling: at least 12,000 feet AGL
Clouds: sky clear below 12,000 feet AGL
Weather: no significant weather observed at this time

METAR text: YMAV 160600Z AUTO 19018KT 9999 // NCD 22/15 Q1015 RF00.0/000.0
Conditions at: YMAV (AVALON AIRPORT , AU) observed 0600 UTC 16 February 2019
Temperature: 22.0°C (72°F)
Dewpoint: 15.0°C (59°F) [RH = 65%]
Pressure (altimeter): 29.97 inches Hg (1015.0 mb)
Winds: from the S (190 degrees) at 21 MPH (18 knots; 9.3 m/s)
Visibility: 6 or more miles (10+ km)
Ceiling: at least 12,000 feet AGL
Clouds: sky clear below 12,000 feet AGL
Weather: no significant weather observed at this time

METAR text: YMAV 160530Z AUTO 19017KT 9999 // NCD 22/15 Q1015 RF00.0/000.0
Conditions at: YMAV (AVALON AIRPORT , AU) observed 0530 UTC 16 February 2019
Temperature: 22.0°C (72°F)
Dewpoint: 15.0°C (59°F) [RH = 65%]
Pressure (altimeter): 29.97 inches Hg (1015.0 mb)
Winds: from the S (190 degrees) at 20 MPH (17 knots; 8.7 m/s)
Visibility: 6 or more miles (10+ km)
Ceiling: at least 12,000 feet AGL
Clouds: sky clear below 12,000 feet AGL
Weather: no significant weather observed at this time

METAR text: YMAV 160500Z AUTO 18014KT 9999 // NCD 24/15 Q1015 RF00.0/000.0
Conditions at: YMAV (AVALON AIRPORT , AU) observed 0500 UTC 16 February 2019
Temperature: 24.0°C (75°F)
Dewpoint: 15.0°C (59°F) [RH = 57%]
Pressure (altimeter): 29.97 inches Hg (1015.0 mb)
Winds: from the S (180 degrees) at 16 MPH (14 knots; 7.2 m/s)
Visibility: 6 or more miles (10+ km)
Ceiling: at least 12,000 feet AGL
Clouds: sky clear below 12,000 feet AGL
Weather: no significant weather observed at this time

METAR text: YMAV 160430Z AUTO 19015KT 9999 // NCD 24/15 Q1015 RF00.0/000.0
Conditions at: YMAV (AVALON AIRPORT , AU) observed 0430 UTC 16 February 2019
Temperature: 24.0°C (75°F)
Dewpoint: 15.0°C (59°F) [RH = 57%]
Pressure (altimeter): 29.97 inches Hg (1015.0 mb)
Winds: from the S (190 degrees) at 17 MPH (15 knots; 7.7 m/s)
Visibility: 6 or more miles (10+ km)
Ceiling: at least 12,000 feet AGL
Clouds: sky clear below 12,000 feet AGL
Weather: no significant weather observed at this time

METAR text: YMAV 160400Z AUTO 19015KT 9999 // NCD 24/15 Q1016 RF00.0/000.0
Conditions at: YMAV (AVALON AIRPORT , AU) observed 0400 UTC 16 February 2019
Temperature: 24.0°C (75°F)
Dewpoint: 15.0°C (59°F) [RH = 57%]
Pressure (altimeter): 30.00 inches Hg (1016.0 mb)
Winds: from the S (190 degrees) at 17 MPH (15 knots; 7.7 m/s)
Visibility: 6 or more miles (10+ km)
Ceiling: at least 12,000 feet AGL
Clouds: sky clear below 12,000 feet AGL
Weather: no significant weather observed at this time

METAR text: YMAV 160330Z AUTO 18013KT 9999 // NCD 25/15 Q1016 RF00.0/000.0
Conditions at: YMAV (AVALON AIRPORT , AU) observed 0330 UTC 16 February 2019
Temperature: 25.0°C (77°F)
Dewpoint: 15.0°C (59°F) [RH = 54%]
Pressure (altimeter): 30.00 inches Hg (1016.0 mb)
Winds: from the S (180 degrees) at 15 MPH (13 knots; 6.7 m/s)
Visibility: 6 or more miles (10+ km)
Ceiling: at least 12,000 feet AGL
Clouds: sky clear below 12,000 feet AGL
Weather: no significant weather observed at this time

METAR text: YMAV 160300Z AUTO 18013KT 9999 // NCD 24/15 Q1017 RF00.0/000.0
Conditions at: YMAV (AVALON AIRPORT , AU) observed 0300 UTC 16 February 2019
Temperature: 24.0°C (75°F)
Dewpoint: 15.0°C (59°F) [RH = 57%]
Pressure (altimeter): 30.03 inches Hg (1017.0 mb)
Winds: from the S (180 degrees) at 15 MPH (13 knots; 6.7 m/s)
Visibility: 6 or more miles (10+ km)
Ceiling: at least 12,000 feet AGL
Clouds: sky clear below 12,000 feet AGL
Weather: no significant weather observed at this time

METAR text: YMAV 160230Z AUTO 18012KT 9999 // NCD 24/15 Q1017 RF00.0/000.0
Conditions at: YMAV (AVALON AIRPORT , AU) observed 0230 UTC 16 February 2019
Temperature: 24.0°C (75°F)
Dewpoint: 15.0°C (59°F) [RH = 57%]
Pressure (altimeter): 30.03 inches Hg (1017.0 mb)
Winds: from the S (180 degrees) at 14 MPH (12 knots; 6.2 m/s)
Visibility: 6 or more miles (10+ km)
Ceiling: at least 12,000 feet AGL
Clouds: sky clear below 12,000 feet AGL
Weather: no significant weather observed at this time

METAR text: YMAV 160200Z AUTO 20011KT 9999 // NCD 24/14 Q1017 RF00.0/000.0
Conditions at: YMAV (AVALON AIRPORT , AU) observed 0200 UTC 16 February 2019
Temperature: 24.0°C (75°F)
Dewpoint: 14.0°C (57°F) [RH = 54%]
Pressure (altimeter): 30.03 inches Hg (1017.0 mb)
Winds: from the SSW (200 degrees) at 13 MPH (11 knots; 5.7 m/s)
Visibility: 6 or more miles (10+ km)
Ceiling: at least 12,000 feet AGL
Clouds: sky clear below 12,000 feet AGL
Weather: no significant weather observed at this time

METAR text: YMAV 160130Z AUTO 20009KT 9999 // NCD 23/15 Q1018 RF00.0/000.0
Conditions at: YMAV (AVALON AIRPORT , AU) observed 0130 UTC 16 February 2019
Temperature: 23.0°C (73°F)
Dewpoint: 15.0°C (59°F) [RH = 61%]
Pressure (altimeter): 30.06 inches Hg (1018.0 mb)
Winds: from the SSW (200 degrees) at 10 MPH (9 knots; 4.6 m/s)
Visibility: 6 or more miles (10+ km)
Ceiling: at least 12,000 feet AGL
Clouds: sky clear below 12,000 feet AGL
Weather: no significant weather observed at this time

METAR text: YMAV 160100Z AUTO 22009KT 9999 // SCT022 22/15 Q1018 RF00.0/000.0
Conditions at: YMAV (AVALON AIRPORT , AU) observed 0100 UTC 16 February 2019
Temperature: 22.0°C (72°F)
Dewpoint: 15.0°C (59°F) [RH = 65%]
Pressure (altimeter): 30.06 inches Hg (1018.0 mb)
Winds: from the SW (220 degrees) at 10 MPH (9 knots; 4.6 m/s)
Visibility: 6 or more miles (10+ km)
Ceiling: at least 12,000 feet AGL
Clouds: scattered clouds at 2200 feet AGL
Weather: no significant weather observed at this time

METAR text: YMAV 160030Z AUTO 19009KT 9999 // SCT021 21/14 Q1018 RF00.0/000.0
Conditions at: YMAV (AVALON AIRPORT , AU) observed 0030 UTC 16 February 2019
Temperature: 21.0°C (70°F)
Dewpoint: 14.0°C (57°F) [RH = 64%]
Pressure (altimeter): 30.06 inches Hg (1018.0 mb)
Winds: from the S (190 degrees) at 10 MPH (9 knots; 4.6 m/s)
Visibility: 6 or more miles (10+ km)
Ceiling: at least 12,000 feet AGL
Clouds: scattered clouds at 2100 feet AGL
Weather: no significant weather observed at this time

METAR text: YMAV 160000Z AUTO 23007KT 9999 // BKN021 21/15 Q1018 RF00.0/000.0
Conditions at: YMAV (AVALON AIRPORT , AU) observed 0000 UTC 16 February 2019
Temperature: 21.0°C (70°F)
Dewpoint: 15.0°C (59°F) [RH = 69%]
Pressure (altimeter): 30.06 inches Hg (1018.0 mb)
Winds: from the SW (230 degrees) at 8 MPH (7 knots; 3.6 m/s)
Visibility: 6 or more miles (10+ km)
Ceiling: 2100 feet AGL
Clouds: broken clouds at 2100 feet AGL
Weather: no significant weather observed at this time

METAR text: YMAV 152330Z AUTO 22006KT 9999 // OVC019 20/15 Q1019 RF00.0/000.0
Conditions at: YMAV (AVALON AIRPORT , AU) observed 2330 UTC 15 February 2019
Temperature: 20.0°C (68°F)
Dewpoint: 15.0°C (59°F) [RH = 73%]
Pressure (altimeter): 30.09 inches Hg (1019.0 mb)
Winds: from the SW (220 degrees) at 7 MPH (6 knots; 3.1 m/s)
Visibility: 6 or more miles (10+ km)
Ceiling: 1900 feet AGL
Clouds: overcast cloud deck at 1900 feet AGL
Weather: no significant weather observed at this time

METAR text: YMAV 152300Z AUTO 20004KT 9999 // OVC019 19/15 Q1019 RF00.0/000.0
Conditions at: YMAV (AVALON AIRPORT , AU) observed 2300 UTC 15 February 2019
Temperature: 19.0°C (66°F)
Dewpoint: 15.0°C (59°F) [RH = 78%]
Pressure (altimeter): 30.09 inches Hg (1019.0 mb)
Winds: from the SSW (200 degrees) at 5 MPH (4 knots; 2.1 m/s)
Visibility: 6 or more miles (10+ km)
Ceiling: 1900 feet AGL
Clouds: overcast cloud deck at 1900 feet AGL
Weather: no significant weather observed at this time

METAR text: YMAV 152230Z AUTO 22005KT 9999 // OVC019 19/15 Q1019 RF00.0/000.0
Conditions at: YMAV (AVALON AIRPORT , AU) observed 2230 UTC 15 February 2019
Temperature: 19.0°C (66°F)
Dewpoint: 15.0°C (59°F) [RH = 78%]
Pressure (altimeter): 30.09 inches Hg (1019.0 mb)
Winds: from the SW (220 degrees) at 6 MPH (5 knots; 2.6 m/s)
Visibility: 6 or more miles (10+ km)
Ceiling: 1900 feet AGL
Clouds: overcast cloud deck at 1900 feet AGL
Weather: no significant weather observed at this time

METAR text: YMAV 152200Z AUTO 21003KT 9999 // OVC019 19/15 Q1019 RF00.0/000.0
Conditions at: YMAV (AVALON AIRPORT , AU) observed 2200 UTC 15 February 2019
Temperature: 19.0°C (66°F)
Dewpoint: 15.0°C (59°F) [RH = 78%]
Pressure (altimeter): 30.09 inches Hg (1019.0 mb)
Winds: from the SSW (210 degrees) at 3 MPH (3 knots; 1.5 m/s)
Visibility: 6 or more miles (10+ km)
Ceiling: 1900 feet AGL
Clouds: overcast cloud deck at 1900 feet AGL
Weather: no significant weather observed at this time

METAR text: YMAV 152130Z AUTO 19005KT 9999 // OVC019 18/16 Q1019 RF00.0/000.0
Conditions at: YMAV (AVALON AIRPORT , AU) observed 2130 UTC 15 February 2019
Temperature: 18.0°C (64°F)
Dewpoint: 16.0°C (61°F) [RH = 88%]
Pressure (altimeter): 30.09 inches Hg (1019.0 mb)
Winds: from the S (190 degrees) at 6 MPH (5 knots; 2.6 m/s)
Visibility: 6 or more miles (10+ km)
Ceiling: 1900 feet AGL
Clouds: overcast cloud deck at 1900 feet AGL
Weather: no significant weather observed at this time

METAR text: YMAV 152110Z AUTO 22002KT 9999 // BKN019 17/17 Q1019 RF00.0/000.0
Conditions at: YMAV (AVALON AIRPORT , AU) observed 2110 UTC 15 February 2019
Temperature: 17.0°C (63°F)
Dewpoint: 17.0°C (63°F) [RH = 100%]
Pressure (altimeter): 30.09 inches Hg (1019.0 mb)
Winds: from the SW (220 degrees) at 2 MPH (2 knots; 1.0 m/s)
Visibility: 6 or more miles (10+ km)
Ceiling: 1900 feet AGL
Clouds: broken clouds at 1900 feet AGL
Weather: no significant weather observed at this time

METAR text: YMAV 152100Z AUTO 00000KT 9999 // SCT014 BKN019 17/17 Q1019
Conditions at: YMAV (AVALON AIRPORT , AU) observed 2100 UTC 15 February 2019
Temperature: 17.0°C (63°F)
Dewpoint: 17.0°C (63°F) [RH = 100%]
Pressure (altimeter): 30.09 inches Hg (1019.0 mb)
Winds: calm
Visibility: 6 or more miles (10+ km)
Ceiling: 1900 feet AGL
Clouds: scattered clouds at 1400 feet AGL
broken clouds at 1900 feet AGL
Weather: no significant weather observed at this time

METAR text: YMAV 152040Z AUTO 00000KT //// // BKN012 15/15 Q1018 RF00.0/000.0
Conditions at: YMAV (AVALON AIRPORT , AU) observed 2040 UTC 15 February 2019
Temperature: 15.0°C (59°F)
Dewpoint: 15.0°C (59°F) [RH = 100%]
Pressure (altimeter): 30.06 inches Hg (1018.0 mb)
Winds: calm
Visibility: missing
Ceiling: 1200 feet AGL
Clouds: broken clouds at 1200 feet AGL
Weather: no significant weather observed at this time

METAR text: YMAV 152030Z AUTO 00000KT 9999 // SCT012 15/15 Q1018 RF00.0/000.0 PRESENT WEATHER SENSOR US
Conditions at: YMAV (AVALON AIRPORT , AU) observed 2030 UTC 15 February 2019
Temperature: 15.0°C (59°F)
Dewpoint: 15.0°C (59°F) [RH = 100%]
Pressure (altimeter): 30.06 inches Hg (1018.0 mb)
Winds: calm
Visibility: 6 or more miles (10+ km)
Ceiling: at least 12,000 feet AGL
Clouds: scattered clouds at 1200 feet AGL
Weather: no significant weather observed at this time

METAR text: YMAV 152000Z AUTO 23001KT 9999 // NCD 14/14 Q1018 RF00.0/000.0
Conditions at: YMAV (AVALON AIRPORT , AU) observed 2000 UTC 15 February 2019
Temperature: 14.0°C (57°F)
Dewpoint: 14.0°C (57°F) [RH = 100%]
Pressure (altimeter): 30.06 inches Hg (1018.0 mb)
Winds: from the SW (230 degrees) at 1 MPH (1 knots; 0.5 m/s)
Visibility: 6 or more miles (10+ km)
Ceiling: at least 12,000 feet AGL
Clouds: sky clear below 12,000 feet AGL
Weather: no significant weather observed at this time

METAR text: YMAV 151930Z AUTO 22002KT 9999 // NCD 15/15 Q1018 RF00.0/000.0
Conditions at: YMAV (AVALON AIRPORT , AU) observed 1930 UTC 15 February 2019
Temperature: 15.0°C (59°F)
Dewpoint: 15.0°C (59°F) [RH = 100%]
Pressure (altimeter): 30.06 inches Hg (1018.0 mb)
Winds: from the SW (220 degrees) at 2 MPH (2 knots; 1.0 m/s)
Visibility: 6 or more miles (10+ km)
Ceiling: at least 12,000 feet AGL
Clouds: sky clear below 12,000 feet AGL
Weather: no significant weather observed at this time

METAR text: YMAV 151900Z AUTO 20004KT 9999 // NCD 16/15 Q1018 RF00.0/000.0
Conditions at: YMAV (AVALON AIRPORT , AU) observed 1900 UTC 15 February 2019
Temperature: 16.0°C (61°F)
Dewpoint: 15.0°C (59°F) [RH = 94%]
Pressure (altimeter): 30.06 inches Hg (1018.0 mb)
Winds: from the SSW (200 degrees) at 5 MPH (4 knots; 2.1 m/s)
Visibility: 6 or more miles (10+ km)
Ceiling: at least 12,000 feet AGL
Clouds: sky clear below 12,000 feet AGL
Weather: no significant weather observed at this time

METAR text: YMAV 151830Z AUTO 19004KT 9999 // BKN015 16/16 Q1018 RF00.0/000.0
Conditions at: YMAV (AVALON AIRPORT , AU) observed 1830 UTC 15 February 2019
Temperature: 16.0°C (61°F)
Dewpoint: 16.0°C (61°F) [RH = 100%]
Pressure (altimeter): 30.06 inches Hg (1018.0 mb)
Winds: from the S (190 degrees) at 5 MPH (4 knots; 2.1 m/s)
Visibility: 6 or more miles (10+ km)
Ceiling: 1500 feet AGL
Clouds: broken clouds at 1500 feet AGL
Weather: no significant weather observed at this time

METAR text: YMAV 151800Z AUTO 19005KT 9999 // OVC015 17/17 Q1018 RF00.0/000.0
Conditions at: YMAV (AVALON AIRPORT , AU) observed 1800 UTC 15 February 2019
Temperature: 17.0°C (63°F)
Dewpoint: 17.0°C (63°F) [RH = 100%]
Pressure (altimeter): 30.06 inches Hg (1018.0 mb)
Winds: from the S (190 degrees) at 6 MPH (5 knots; 2.6 m/s)
Visibility: 6 or more miles (10+ km)
Ceiling: 1500 feet AGL
Clouds: overcast cloud deck at 1500 feet AGL
Weather: no significant weather observed at this time

METAR text: YMAV 151750Z AUTO 19006KT 9999 // OVC015 17/16 Q1019 RF00.0/000.0
Conditions at: YMAV (AVALON AIRPORT , AU) observed 1750 UTC 15 February 2019
Temperature: 17.0°C (63°F)
Dewpoint: 16.0°C (61°F) [RH = 94%]
Pressure (altimeter): 30.09 inches Hg (1019.0 mb)
Winds: from the S (190 degrees) at 7 MPH (6 knots; 3.1 m/s)
Visibility: 6 or more miles (10+ km)
Ceiling: 1500 feet AGL
Clouds: overcast cloud deck at 1500 feet AGL
Weather: no significant weather observed at this time

METAR text: YMAV 151730Z AUTO 19006KT 9999 // BKN013 16/15 Q1019 RF00.0/000.0
Conditions at: YMAV (AVALON AIRPORT , AU) observed 1730 UTC 15 February 2019
Temperature: 16.0°C (61°F)
Dewpoint: 15.0°C (59°F) [RH = 94%]
Pressure (altimeter): 30.09 inches Hg (1019.0 mb)
Winds: from the S (190 degrees) at 7 MPH (6 knots; 3.1 m/s)
Visibility: 6 or more miles (10+ km)
Ceiling: 1300 feet AGL
Clouds: broken clouds at 1300 feet AGL
Weather: no significant weather observed at this time

METAR text: YMAV 151700Z AUTO 21007KT //// // BKN013 16/16 Q1019 RF00.0/000.0 PRESENT WEATHER SENSOR US
Conditions at: YMAV (AVALON AIRPORT , AU) observed 1700 UTC 15 February 2019
Temperature: 16.0°C (61°F)
Dewpoint: 16.0°C (61°F) [RH = 100%]
Pressure (altimeter): 30.09 inches Hg (1019.0 mb)
Winds: from the SSW (210 degrees) at 8 MPH (7 knots; 3.6 m/s)
Visibility: missing
Ceiling: 1300 feet AGL
Clouds: broken clouds at 1300 feet AGL
Weather: no significant weather observed at this time

METAR text: YMAV 151646Z AUTO 23005KT 9999 // BKN011 15/15 Q1019 RF00.0/000.0 PRESENT WEATHER SENSOR US
Conditions at: YMAV (AVALON AIRPORT , AU) observed 1646 UTC 15 February 2019
Temperature: 15.0°C (59°F)
Dewpoint: 15.0°C (59°F) [RH = 100%]
Pressure (altimeter): 30.09 inches Hg (1019.0 mb)
Winds: from the SW (230 degrees) at 6 MPH (5 knots; 2.6 m/s)
Visibility: 6 or more miles (10+ km)
Ceiling: 1100 feet AGL
Clouds: broken clouds at 1100 feet AGL
Weather: no significant weather observed at this time

METAR text: YMAV 151630Z AUTO 27003KT 9999 // SCT013 14/14 Q1019 RF00.0/000.0
Conditions at: YMAV (AVALON AIRPORT , AU) observed 1630 UTC 15 February 2019
Temperature: 14.0°C (57°F)
Dewpoint: 14.0°C (57°F) [RH = 100%]
Pressure (altimeter): 30.09 inches Hg (1019.0 mb)
Winds: from the W (270 degrees) at 3 MPH (3 knots; 1.5 m/s)
Visibility: 6 or more miles (10+ km)
Ceiling: at least 12,000 feet AGL
Clouds: scattered clouds at 1300 feet AGL
Weather: no significant weather observed at this time

METAR text: YMAV 151600Z AUTO 29004KT 9999 // NCD 15/14 Q1019 RF00.0/000.0
Conditions at: YMAV (AVALON AIRPORT , AU) observed 1600 UTC 15 February 2019
Temperature: 15.0°C (59°F)
Dewpoint: 14.0°C (57°F) [RH = 94%]
Pressure (altimeter): 30.09 inches Hg (1019.0 mb)
Winds: from the WNW (290 degrees) at 5 MPH (4 knots; 2.1 m/s)
Visibility: 6 or more miles (10+ km)
Ceiling: at least 12,000 feet AGL
Clouds: sky clear below 12,000 feet AGL
Weather: no significant weather observed at this time

METAR text: YMAV 151530Z AUTO 30004KT 9999 // NCD 15/14 Q1020 RF00.0/000.0
Conditions at: YMAV (AVALON AIRPORT , AU) observed 1530 UTC 15 February 2019
Temperature: 15.0°C (59°F)
Dewpoint: 14.0°C (57°F) [RH = 94%]
Pressure (altimeter): 30.12 inches Hg (1020.0 mb)
Winds: from the WNW (300 degrees) at 5 MPH (4 knots; 2.1 m/s)
Visibility: 6 or more miles (10+ km)
Ceiling: at least 12,000 feet AGL
Clouds: sky clear below 12,000 feet AGL
Weather: no significant weather observed at this time

METAR text: YMAV 151500Z AUTO 25002KT 9999 // NCD 15/14 Q1020 RF00.0/000.0
Conditions at: YMAV (AVALON AIRPORT , AU) observed 1500 UTC 15 February 2019
Temperature: 15.0°C (59°F)
Dewpoint: 14.0°C (57°F) [RH = 94%]
Pressure (altimeter): 30.12 inches Hg (1020.0 mb)
Winds: from the WSW (250 degrees) at 2 MPH (2 knots; 1.0 m/s)
Visibility: 6 or more miles (10+ km)
Ceiling: at least 12,000 feet AGL
Clouds: sky clear below 12,000 feet AGL
Weather: no significant weather observed at this time

METAR text: YMAV 151430Z AUTO 17005KT 9999 // NCD 15/14 Q1020 RF00.0/000.0 PRESENT WEATHER SENSOR US
Conditions at: YMAV (AVALON AIRPORT , AU) observed 1430 UTC 15 February 2019
Temperature: 15.0°C (59°F)
Dewpoint: 14.0°C (57°F) [RH = 94%]
Pressure (altimeter): 30.12 inches Hg (1020.0 mb)
Winds: from the S (170 degrees) at 6 MPH (5 knots; 2.6 m/s)
Visibility: 6 or more miles (10+ km)
Ceiling: at least 12,000 feet AGL
Clouds: sky clear below 12,000 feet AGL
Weather: no significant weather observed at this time

METAR text: YMAV 151400Z AUTO 19006KT 9999 // NCD 15/13 Q1020 RF00.0/000.0
Conditions at: YMAV (AVALON AIRPORT , AU) observed 1400 UTC 15 February 2019
Temperature: 15.0°C (59°F)
Dewpoint: 13.0°C (55°F) [RH = 88%]
Pressure (altimeter): 30.12 inches Hg (1020.0 mb)
Winds: from the S (190 degrees) at 7 MPH (6 knots; 3.1 m/s)
Visibility: 6 or more miles (10+ km)
Ceiling: at least 12,000 feet AGL
Clouds: sky clear below 12,000 feet AGL
Weather: no significant weather observed at this time

METAR text: YMAV 151330Z AUTO 19005KT 9999 // NCD 15/14 Q1021 RF00.0/000.0
Conditions at: YMAV (AVALON AIRPORT , AU) observed 1330 UTC 15 February 2019
Temperature: 15.0°C (59°F)
Dewpoint: 14.0°C (57°F) [RH = 94%]
Pressure (altimeter): 30.15 inches Hg (1021.0 mb)
Winds: from the S (190 degrees) at 6 MPH (5 knots; 2.6 m/s)
Visibility: 6 or more miles (10+ km)
Ceiling: at least 12,000 feet AGL
Clouds: sky clear below 12,000 feet AGL
Weather: no significant weather observed at this time

METAR text: YMAV 151300Z AUTO 17006KT 9999 // NCD 16/14 Q1021 RF00.0/000.0
Conditions at: YMAV (AVALON AIRPORT , AU) observed 1300 UTC 15 February 2019
Temperature: 16.0°C (61°F)
Dewpoint: 14.0°C (57°F) [RH = 88%]
Pressure (altimeter): 30.15 inches Hg (1021.0 mb)
Winds: from the S (170 degrees) at 7 MPH (6 knots; 3.1 m/s)
Visibility: 6 or more miles (10+ km)
Ceiling: at least 12,000 feet AGL
Clouds: sky clear below 12,000 feet AGL
Weather: no significant weather observed at this time

METAR text: YMAV 151230Z AUTO 17007KT 9999 // NCD 16/14 Q1021 RF00.0/000.0
Conditions at: YMAV (AVALON AIRPORT , AU) observed 1230 UTC 15 February 2019
Temperature: 16.0°C (61°F)
Dewpoint: 14.0°C (57°F) [RH = 88%]
Pressure (altimeter): 30.15 inches Hg (1021.0 mb)
Winds: from the S (170 degrees) at 8 MPH (7 knots; 3.6 m/s)
Visibility: 6 or more miles (10+ km)
Ceiling: at least 12,000 feet AGL
Clouds: sky clear below 12,000 feet AGL
Weather: no significant weather observed at this time

METAR text: YMAV 151200Z AUTO 16007KT 9999 // NCD 16/14 Q1021 RF00.0/000.0
Conditions at: YMAV (AVALON AIRPORT , AU) observed 1200 UTC 15 February 2019
Temperature: 16.0°C (61°F)
Dewpoint: 14.0°C (57°F) [RH = 88%]
Pressure (altimeter): 30.15 inches Hg (1021.0 mb)
Winds: from the SSE (160 degrees) at 8 MPH (7 knots; 3.6 m/s)
Visibility: 6 or more miles (10+ km)
Ceiling: at least 12,000 feet AGL
Clouds: sky clear below 12,000 feet AGL
Weather: no significant weather observed at this time

METAR text: YMAV 151130Z AUTO 18007KT 9999 // NCD 17/14 Q1022 RF00.0/000.0
Conditions at: YMAV (AVALON AIRPORT , AU) observed 1130 UTC 15 February 2019
Temperature: 17.0°C (63°F)
Dewpoint: 14.0°C (57°F) [RH = 82%]
Pressure (altimeter): 30.18 inches Hg (1022.0 mb)
Winds: from the S (180 degrees) at 8 MPH (7 knots; 3.6 m/s)
Visibility: 6 or more miles (10+ km)
Ceiling: at least 12,000 feet AGL
Clouds: sky clear below 12,000 feet AGL
Weather: no significant weather observed at this time

METAR text: YMAV 151100Z AUTO 17007KT 9999 // NCD 17/13 Q1022 RF00.0/000.0
Conditions at: YMAV (AVALON AIRPORT , AU) observed 1100 UTC 15 February 2019
Temperature: 17.0°C (63°F)
Dewpoint: 13.0°C (55°F) [RH = 77%]
Pressure (altimeter): 30.18 inches Hg (1022.0 mb)
Winds: from the S (170 degrees) at 8 MPH (7 knots; 3.6 m/s)
Visibility: 6 or more miles (10+ km)
Ceiling: at least 12,000 feet AGL
Clouds: sky clear below 12,000 feet AGL
Weather: no significant weather observed at this time

METAR text: YMAV 151030Z AUTO 17007KT 9999 // NCD 17/13 Q1022 RF00.0/000.0
Conditions at: YMAV (AVALON AIRPORT , AU) observed 1030 UTC 15 February 2019
Temperature: 17.0°C (63°F)
Dewpoint: 13.0°C (55°F) [RH = 77%]
Pressure (altimeter): 30.18 inches Hg (1022.0 mb)
Winds: from the S (170 degrees) at 8 MPH (7 knots; 3.6 m/s)
Visibility: 6 or more miles (10+ km)
Ceiling: at least 12,000 feet AGL
Clouds: sky clear below 12,000 feet AGL
Weather: no significant weather observed at this time

METAR text: YMAV 151000Z AUTO 16008KT 9999 // NCD 17/13 Q1022 RF00.0/000.0
Conditions at: YMAV (AVALON AIRPORT , AU) observed 1000 UTC 15 February 2019
Temperature: 17.0°C (63°F)
Dewpoint: 13.0°C (55°F) [RH = 77%]
Pressure (altimeter): 30.18 inches Hg (1022.0 mb)
Winds: from the SSE (160 degrees) at 9 MPH (8 knots; 4.1 m/s)
Visibility: 6 or more miles (10+ km)
Ceiling: at least 12,000 feet AGL
Clouds: sky clear below 12,000 feet AGL
Weather: no significant weather observed at this time

Forecast for: AMD
Text: TAF AMD YMAV 162008Z 1620/1718 VRB04KT CAVOK
Forecast period: 2000 UTC 16 February 2019 to 0200 UTC 17 February 2019
Forecast type: FROM: standard forecast or significant change
Winds: variable direction winds at 5 MPH (4 knots; 2.1 m/s)
Visibility: 6 or more miles 10+ km)
Ceiling: unknown
Clouds: missing
Weather: NSW  (no significant weather)
Text: FM170200 20010KT CAVOK
Forecast period: 0200 to 1000 UTC 17 February 2019
Forecast type: FROM: standard forecast or significant change
Winds: from the SSW (200 degrees) at 12 MPH (10 knots; 5.1 m/s)
Visibility: 6 or more miles 10+ km)
Ceiling: unknown
Clouds: missing
Weather: NSW  (no significant weather)
Text: BECMG 1710/1712 VRB05KT 9999 FEW004 BKN008
Forecast period: 1000 to 1800 UTC 17 February 2019
Forecast type: BECOMING: Conditions expected to become as follows by 1200 UTC 17 February 2019
Winds: variable direction winds at 6 MPH (5 knots; 2.6 m/s)
Visibility: 6 or more miles 10+ km)
Ceiling: 800 feet AGL
Clouds: few clouds at 400 feet AGL
broken clouds at 800 feet AGL
Weather: NSW  (no significant weather)